createdAt,value
2024-01-07T00:00:35.754Z,4.24
2024-01-07T00:03:03.469Z,4.21
2024-01-07T00:05:34.750Z,4.14
2024-01-07T00:08:02.639Z,4.12
2024-01-07T00:10:30.375Z,4.19
2024-01-07T00:12:58.268Z,4.21
2024-01-07T00:15:27.958Z,4.19
2024-01-07T00:17:56.009Z,4.12
2024-01-07T00:20:23.141Z,4.13
2024-01-07T00:22:52.139Z,4.08
2024-01-07T00:25:20.322Z,4.08
2024-01-07T00:27:47.998Z,4.11
2024-01-07T00:30:16.096Z,4.09
2024-01-07T00:32:44.265Z,4.12
2024-01-07T00:35:11.968Z,4.21
2024-01-07T00:37:39.894Z,4.06
2024-01-07T00:40:10.571Z,4.07
2024-01-07T00:42:38.660Z,4.11
2024-01-07T00:45:07.165Z,4.13
2024-01-07T00:47:34.914Z,4.17
2024-01-07T00:50:03.136Z,4.09
2024-01-07T00:52:30.881Z,4.22
2024-01-07T00:54:58.827Z,4.11
2024-01-07T00:57:27.925Z,4.14
2024-01-07T00:59:55.630Z,4.13
2024-01-07T01:02:23.723Z,4.13
2024-01-07T01:04:51.541Z,4.20
2024-01-07T01:07:19.746Z,4.14
2024-01-07T01:09:47.570Z,4.18
2024-01-07T01:12:15.363Z,4.06
2024-01-07T01:14:44.737Z,4.02
2024-01-07T01:17:12.510Z,3.97
2024-01-07T01:19:41.574Z,4.05
2024-01-07T01:22:09.448Z,4.08
2024-01-07T01:24:37.224Z,4.08
2024-01-07T01:27:05.674Z,4.09
2024-01-07T01:29:33.349Z,4.10
2024-01-07T01:32:02.377Z,4.10
2024-01-07T01:34:30.505Z,4.07
2024-01-07T01:36:58.188Z,4.07
2024-01-07T01:39:25.923Z,4.12
2024-01-07T01:41:54.655Z,4.08
2024-01-07T01:44:22.379Z,4.05
2024-01-07T01:46:50.139Z,3.99
2024-01-07T01:49:19.469Z,3.99
2024-01-07T01:51:47.287Z,4.02
2024-01-07T01:54:15.501Z,4.03
2024-01-07T01:56:44.466Z,4.00
2024-01-07T01:59:13.636Z,4.17
2024-01-07T02:01:41.782Z,4.19
2024-01-07T02:04:11.394Z,4.07
2024-01-07T02:06:40.721Z,4.03
2024-01-07T02:09:08.420Z,4.00
2024-01-07T02:11:36.525Z,4.02
2024-01-07T02:14:04.183Z,4.06
2024-01-07T02:16:31.978Z,4.05
2024-01-07T02:19:00.302Z,4.02
2024-01-07T02:21:28.110Z,4.13
2024-01-07T02:23:57.212Z,4.06
2024-01-07T02:26:26.806Z,4.03
2024-01-07T02:28:54.506Z,4.01
2024-01-07T02:31:22.244Z,4.00
2024-01-07T02:33:50.339Z,4.10
2024-01-07T02:36:18.156Z,4.08
2024-01-07T02:38:45.958Z,4.15
2024-01-07T02:41:13.608Z,4.07
2024-01-07T02:43:42.879Z,4.11
2024-01-07T02:46:10.778Z,4.07
2024-01-07T02:48:39.330Z,4.04
2024-01-07T02:51:07.376Z,4.03
2024-01-07T02:53:35.085Z,3.99
2024-01-07T02:56:03.020Z,4.00
2024-01-07T02:58:30.773Z,4.02
2024-01-07T03:01:00.065Z,4.12
2024-01-07T03:03:27.765Z,4.09
2024-01-07T03:05:55.443Z,4.05
2024-01-07T03:08:23.335Z,4.07
2024-01-07T03:10:52.008Z,4.06
2024-01-07T03:13:19.805Z,4.06
2024-01-07T03:15:47.487Z,4.12
2024-01-07T03:18:17.110Z,4.00
2024-01-07T03:20:44.770Z,3.98
2024-01-07T03:23:12.506Z,4.03
2024-01-07T03:25:40.686Z,4.01
2024-01-07T03:28:08.519Z,3.94
2024-01-07T03:30:36.547Z,3.93
2024-01-07T03:33:04.457Z,3.99
2024-01-07T03:35:33.555Z,4.03
2024-01-07T03:38:01.202Z,4.02
2024-01-07T03:40:28.916Z,3.99
2024-01-07T03:42:56.583Z,4.03
2024-01-07T03:45:24.342Z,4.07
2024-01-07T03:47:52.687Z,4.03
2024-01-07T03:50:20.556Z,3.99
2024-01-07T03:52:49.707Z,3.94
2024-01-07T03:55:17.393Z,3.86
2024-01-07T03:57:45.881Z,3.82
2024-01-07T04:00:14.158Z,3.90
2024-01-07T04:02:41.846Z,3.98
2024-01-07T04:05:10.607Z,3.96
2024-01-07T04:07:38.479Z,4.01
2024-01-07T04:10:08.532Z,3.96
2024-01-07T04:12:36.290Z,3.93
2024-01-07T04:15:04.308Z,3.87
2024-01-07T04:17:32.109Z,3.94
2024-01-07T04:20:00.605Z,3.96
2024-01-07T04:22:28.316Z,3.98
2024-01-07T04:24:56.225Z,3.87
2024-01-07T04:27:26.003Z,3.87
2024-01-07T04:29:53.661Z,3.81
2024-01-07T04:32:21.629Z,3.74
2024-01-07T04:34:49.915Z,3.78
2024-01-07T04:37:18.172Z,3.81
2024-01-07T04:39:45.916Z,3.83
2024-01-07T04:42:14.768Z,3.84
2024-01-07T04:44:43.781Z,3.83
2024-01-07T04:47:26.412Z,3.96
2024-01-07T04:49:54.367Z,3.86
2024-01-07T04:52:23.117Z,3.86
2024-01-07T04:54:51.180Z,3.85
2024-01-07T04:57:18.873Z,3.83
2024-01-07T04:59:48.621Z,3.79
2024-01-07T05:02:16.526Z,3.88
2024-01-07T05:04:44.855Z,3.87
2024-01-07T05:07:12.682Z,3.84
2024-01-07T05:09:41.667Z,3.80
2024-01-07T05:12:09.365Z,3.86
2024-01-07T05:14:38.306Z,3.86
2024-01-07T05:17:07.621Z,3.83
2024-01-07T05:19:35.410Z,3.89
2024-01-07T05:22:03.206Z,3.85
2024-01-07T05:24:32.937Z,3.92
2024-01-07T05:27:02.183Z,3.89
2024-01-07T05:29:29.871Z,4.00
2024-01-07T05:31:58.106Z,3.92
2024-01-07T05:34:27.160Z,3.88
2024-01-07T05:36:54.890Z,3.87
2024-01-07T05:39:22.888Z,3.86
2024-01-07T05:41:50.557Z,3.97
2024-01-07T05:44:18.809Z,3.94
2024-01-07T05:46:46.426Z,3.86
2024-01-07T05:49:14.725Z,3.84
2024-01-07T05:51:43.858Z,3.83
2024-01-07T05:54:12.262Z,3.79
2024-01-07T05:56:43.131Z,3.82
2024-01-07T05:59:11.087Z,3.83
2024-01-07T06:01:38.976Z,3.90
2024-01-07T06:04:06.792Z,3.83
2024-01-07T06:06:35.306Z,3.89
2024-01-07T06:09:05.415Z,3.85
2024-01-07T06:11:33.420Z,3.97
2024-01-07T06:14:01.093Z,3.91
2024-01-07T06:16:29.022Z,3.91
2024-01-07T06:18:56.899Z,3.85
2024-01-07T06:21:24.925Z,3.82
2024-01-07T06:23:52.949Z,3.97
2024-01-07T06:26:21.951Z,3.87
2024-01-07T06:28:49.623Z,3.91
2024-01-07T06:31:17.501Z,3.91
2024-01-07T06:33:45.555Z,3.91
2024-01-07T06:36:13.329Z,3.90
2024-01-07T06:38:41.230Z,3.85
2024-01-07T06:41:08.902Z,3.84
2024-01-07T06:43:38.486Z,3.89
2024-01-07T06:46:06.153Z,3.90
2024-01-07T06:48:34.010Z,3.86
2024-01-07T06:51:02.407Z,3.89
2024-01-07T06:53:30.099Z,3.78
2024-01-07T06:55:57.953Z,3.77
2024-01-07T06:58:25.611Z,3.84
2024-01-07T07:00:54.927Z,3.91
2024-01-07T07:03:22.616Z,3.92
2024-01-07T07:05:50.604Z,3.95
2024-01-07T07:08:18.612Z,3.89
2024-01-07T07:10:46.340Z,4.01
2024-01-07T07:13:15.461Z,3.96
2024-01-07T07:15:43.165Z,3.91
2024-01-07T07:18:12.459Z,3.93
2024-01-07T07:20:40.444Z,3.91
2024-01-07T07:23:08.728Z,3.94
2024-01-07T07:25:36.399Z,3.83
2024-01-07T07:28:04.805Z,3.92
2024-01-07T07:30:32.609Z,3.94
2024-01-07T07:33:00.576Z,3.94
2024-01-07T07:35:30.422Z,4.00
2024-01-07T07:37:58.176Z,3.94
2024-01-07T07:40:25.986Z,3.82
2024-01-07T07:42:53.903Z,3.96
2024-01-07T07:45:22.305Z,3.89
2024-01-07T07:47:50.097Z,3.86
2024-01-07T07:50:18.224Z,3.69
2024-01-07T07:52:47.328Z,3.84
2024-01-07T07:55:15.105Z,3.85
2024-01-07T07:57:43.117Z,3.85
2024-01-07T08:00:13.626Z,3.97
2024-01-07T08:02:41.681Z,3.89
2024-01-07T08:05:09.863Z,3.97
2024-01-07T08:07:37.839Z,3.96
2024-01-07T08:10:09.132Z,3.91
2024-01-07T08:12:37.817Z,3.98
2024-01-07T08:15:07.160Z,3.89
2024-01-07T08:17:35.163Z,3.85
2024-01-07T08:20:04.910Z,3.94
2024-01-07T08:22:33.011Z,3.96
2024-01-07T08:25:00.919Z,4.01
2024-01-07T08:27:30.198Z,3.88
2024-01-07T08:29:57.853Z,3.91
2024-01-07T08:32:25.646Z,3.92
2024-01-07T08:34:53.625Z,3.92
2024-01-07T08:37:21.414Z,3.90
2024-01-07T08:39:49.851Z,3.79
2024-01-07T08:42:17.868Z,3.87
2024-01-07T08:44:48.329Z,3.91
2024-01-07T08:47:16.030Z,3.83
2024-01-07T08:49:44.647Z,3.82
2024-01-07T08:52:12.682Z,3.82
2024-01-07T08:54:40.415Z,3.81
2024-01-07T08:57:09.416Z,3.75
2024-01-07T08:59:37.344Z,3.70
2024-01-07T09:02:07.059Z,3.60
2024-01-07T09:04:35.180Z,3.73
2024-01-07T09:07:03.095Z,3.84
2024-01-07T09:09:31.186Z,3.85
2024-01-07T09:12:00.270Z,3.82
2024-01-07T09:14:28.351Z,3.98
2024-01-07T09:16:56.065Z,3.91
2024-01-07T09:19:25.536Z,4.04
2024-01-07T09:21:53.755Z,3.89
2024-01-07T09:24:21.478Z,3.92
2024-01-07T09:26:49.164Z,3.88
2024-01-07T09:29:16.948Z,3.85
2024-01-07T09:31:45.110Z,3.87
2024-01-07T09:34:12.974Z,3.79
2024-01-07T09:36:42.382Z,3.80
2024-01-07T09:39:10.585Z,3.89
2024-01-07T09:41:38.723Z,3.85
2024-01-07T09:44:08.588Z,3.84
2024-01-07T09:46:37.621Z,4.00
2024-01-07T09:49:05.602Z,4.03
2024-01-07T09:51:37.762Z,4.02
2024-01-07T09:54:12.268Z,4.18
2024-01-07T09:56:44.880Z,4.13
2024-01-07T09:59:13.155Z,4.02
2024-01-07T10:01:41.240Z,4.26
2024-01-07T10:04:09.689Z,4.30
2024-01-07T10:06:38.934Z,4.36
2024-01-07T10:09:09.323Z,4.30
2024-01-07T10:11:37.711Z,4.39
2024-01-07T10:14:06.439Z,4.37
2024-01-07T10:16:34.836Z,4.31
2024-01-07T10:19:02.825Z,4.40
2024-01-07T10:21:30.732Z,4.55
2024-01-07T10:24:11.607Z,4.53
2024-01-07T10:26:40.319Z,4.38
2024-01-07T10:29:09.052Z,4.46
2024-01-07T10:31:37.826Z,4.57
2024-01-07T10:34:09.760Z,4.54
2024-01-07T10:36:38.554Z,4.61
2024-01-07T10:39:07.724Z,4.37
2024-01-07T10:41:39.670Z,4.28
2024-01-07T10:44:07.513Z,4.21
2024-01-07T10:46:35.956Z,4.06
2024-01-07T10:49:09.723Z,3.99
2024-01-07T10:51:38.551Z,4.02
2024-01-07T10:54:09.002Z,4.09
2024-01-07T10:56:45.746Z,4.02
2024-01-07T10:59:13.657Z,3.92
2024-01-07T11:01:41.453Z,3.99
2024-01-07T11:04:17.294Z,4.01
2024-01-07T11:06:51.805Z,4.02
2024-01-07T11:09:25.127Z,4.01
2024-01-07T11:11:54.545Z,4.07
2024-01-07T11:14:40.592Z,4.16
2024-01-07T11:17:08.754Z,4.05
2024-01-07T11:19:37.834Z,3.97
2024-01-07T11:22:25.868Z,4.10
2024-01-07T11:24:54.033Z,3.91
2024-01-07T11:27:24.580Z,3.88
2024-01-07T11:29:57.908Z,3.99
2024-01-07T11:32:27.394Z,4.08
2024-01-07T11:35:00.395Z,4.21
2024-01-07T11:37:28.422Z,4.29
2024-01-07T11:39:58.345Z,3.97
2024-01-07T11:42:27.540Z,3.97
2024-01-07T11:44:56.746Z,3.98
2024-01-07T11:47:26.927Z,3.84
2024-01-07T11:49:54.834Z,3.66
2024-01-07T11:52:23.368Z,3.67
2024-01-07T11:54:51.509Z,3.91
2024-01-07T11:57:19.633Z,3.68
2024-01-07T11:59:48.735Z,3.65
2024-01-07T12:02:18.500Z,3.74
2024-01-07T12:04:46.300Z,3.73
2024-01-07T12:07:16.234Z,3.77
2024-01-07T12:09:44.213Z,3.69
2024-01-07T12:12:12.555Z,3.71
2024-01-07T12:14:40.476Z,3.75
2024-01-07T12:17:14.054Z,3.58
2024-01-07T12:19:42.822Z,3.45
2024-01-07T12:22:11.074Z,3.19
2024-01-07T12:24:38.949Z,3.26
2024-01-07T12:27:07.500Z,3.34
2024-01-07T12:29:35.465Z,3.27
2024-01-07T12:32:04.861Z,2.90
2024-01-07T12:34:34.343Z,3.25
2024-01-07T12:37:03.757Z,3.28
2024-01-07T12:39:31.766Z,2.99
2024-01-07T12:41:59.880Z,3.14
2024-01-07T12:44:29.772Z,3.04
2024-01-07T12:46:57.717Z,2.89
2024-01-07T12:49:25.885Z,3.01
2024-01-07T12:51:55.176Z,2.85
2024-01-07T12:54:24.415Z,2.84
2024-01-07T12:56:52.704Z,2.78
2024-01-07T12:59:20.481Z,2.77
2024-01-07T13:01:48.724Z,2.83
2024-01-07T13:04:17.115Z,2.79
2024-01-07T13:06:45.153Z,2.50
2024-01-07T13:09:14.877Z,2.64
2024-01-07T13:11:42.589Z,2.66
2024-01-07T13:14:10.412Z,2.49
2024-01-07T13:16:38.175Z,2.46
2024-01-07T13:19:06.387Z,2.27
2024-01-07T13:21:37.546Z,2.26
2024-01-07T13:24:07.845Z,2.15
2024-01-07T13:26:36.877Z,2.25
2024-01-07T13:29:05.089Z,2.18
2024-01-07T13:31:33.446Z,2.25
2024-01-07T13:34:01.977Z,2.39
2024-01-07T13:36:29.827Z,2.39
2024-01-07T13:38:58.173Z,2.36
2024-01-07T13:41:29.744Z,2.41
2024-01-07T13:43:59.345Z,2.25
2024-01-07T13:46:27.892Z,2.29
2024-01-07T13:48:56.507Z,2.27
2024-01-07T13:51:24.261Z,2.26
2024-01-07T13:53:52.047Z,2.39
2024-01-07T13:56:19.718Z,2.41
2024-01-07T13:58:50.519Z,2.34
2024-01-07T14:01:19.814Z,2.48
2024-01-07T14:03:47.546Z,2.44
2024-01-07T14:06:15.465Z,2.13
2024-01-07T14:08:43.842Z,1.98
2024-01-07T14:11:11.905Z,2.03
2024-01-07T14:13:39.853Z,2.14
2024-01-07T14:16:08.643Z,2.10
2024-01-07T14:18:37.810Z,2.18
2024-01-07T14:21:05.871Z,2.21
2024-01-07T14:23:34.885Z,2.19
2024-01-07T14:26:03.411Z,2.00
2024-01-07T14:28:31.228Z,2.06
2024-01-07T14:30:59.754Z,1.80
2024-01-07T14:33:27.953Z,1.88
2024-01-07T14:35:57.283Z,1.70
2024-01-07T14:38:26.571Z,1.73
2024-01-07T14:40:54.479Z,1.65
2024-01-07T14:43:22.262Z,1.69
2024-01-07T14:45:50.193Z,1.76
2024-01-07T14:48:18.015Z,1.72
2024-01-07T14:50:48.810Z,1.68
2024-01-07T14:53:18.050Z,1.77
2024-01-07T14:55:46.640Z,1.74
2024-01-07T14:58:14.542Z,1.74
2024-01-07T15:00:42.526Z,1.82
2024-01-07T15:03:10.434Z,1.71
2024-01-07T15:05:38.568Z,1.71
2024-01-07T15:08:06.463Z,1.64
2024-01-07T15:10:36.114Z,1.62
2024-01-07T15:13:11.389Z,1.50
2024-01-07T15:15:45.127Z,1.53
2024-01-07T15:18:13.111Z,1.47
2024-01-07T15:20:41.251Z,1.23
2024-01-07T15:23:08.971Z,1.30
2024-01-07T15:25:38.014Z,1.32
2024-01-07T15:28:06.198Z,1.26
2024-01-07T15:30:34.054Z,1.32
2024-01-07T15:33:02.203Z,1.23
2024-01-07T15:35:30.100Z,1.03
2024-01-07T15:37:59.023Z,1.06
2024-01-07T15:40:27.913Z,0.97
2024-01-07T15:42:57.311Z,0.99
2024-01-07T15:45:25.580Z,0.94
2024-01-07T15:47:53.553Z,0.99
2024-01-07T15:50:21.268Z,0.89
2024-01-07T15:52:50.715Z,0.92
2024-01-07T15:55:19.576Z,0.95
2024-01-07T15:57:47.778Z,0.72
2024-01-07T16:00:17.424Z,0.78
2024-01-07T16:02:47.246Z,0.85
2024-01-07T16:05:15.268Z,0.64
2024-01-07T16:07:43.399Z,0.68
2024-01-07T16:10:12.646Z,0.73
2024-01-07T16:12:40.989Z,0.55
2024-01-07T16:15:09.388Z,0.66
2024-01-07T16:17:40.453Z,0.53
2024-01-07T16:20:12.271Z,0.46
2024-01-07T16:22:40.450Z,0.34
2024-01-07T16:25:09.251Z,0.26
2024-01-07T16:27:37.769Z,0.27
2024-01-07T16:30:06.446Z,0.12
2024-01-07T16:32:34.541Z,0.24
2024-01-07T16:35:03.813Z,0.30
2024-01-07T16:37:32.209Z,0.20
2024-01-07T16:40:00.028Z,0.30
2024-01-07T16:42:27.917Z,0.18
2024-01-07T16:44:55.659Z,0.19
2024-01-07T16:47:23.335Z,0.00
2024-01-07T16:50:20.452Z,0.00
2024-01-07T16:52:40.959Z,0.00
2024-01-07T16:55:10.522Z,-0.05
2024-01-07T16:57:38.785Z,0.00
2024-01-07T17:00:08.400Z,-0.04
2024-01-07T17:02:36.106Z,0.00
2024-01-07T17:05:03.684Z,-0.44
2024-01-07T17:07:31.625Z,-0.05
2024-01-07T17:10:00.769Z,-0.10
2024-01-07T17:12:29.148Z,-0.31
2024-01-07T17:14:57.239Z,-0.21
2024-01-07T17:17:26.147Z,-0.20
2024-01-07T17:19:54.386Z,-0.36
2024-01-07T17:22:22.093Z,-0.40
2024-01-07T17:24:50.093Z,-0.56
2024-01-07T17:27:19.194Z,-0.50
2024-01-07T17:29:47.893Z,-0.64
2024-01-07T17:32:17.407Z,-0.61
2024-01-07T17:34:45.306Z,-0.59
2024-01-07T17:37:13.258Z,-0.68
2024-01-07T17:39:41.306Z,-0.57
2024-01-07T17:42:09.296Z,-0.54
2024-01-07T17:44:41.831Z,-0.68
2024-01-07T17:47:11.173Z,-0.67
2024-01-07T17:49:39.203Z,-0.71
2024-01-07T17:52:07.449Z,-0.66
2024-01-07T17:54:37.823Z,-0.65
2024-01-07T17:57:05.931Z,-0.59
2024-01-07T17:59:35.200Z,-0.59
2024-01-07T18:02:04.838Z,-0.63
2024-01-07T18:04:32.962Z,-0.52
2024-01-07T18:07:00.732Z,-0.71
2024-01-07T18:09:28.788Z,-0.79
2024-01-07T18:11:56.677Z,-0.67
2024-01-07T18:14:24.987Z,-0.60
2024-01-07T18:16:53.066Z,-0.60
2024-01-07T18:19:22.301Z,-0.67
2024-01-07T18:21:50.029Z,-0.72
2024-01-07T18:24:18.652Z,-0.71
2024-01-07T18:26:46.869Z,-0.78
2024-01-07T18:29:14.782Z,-0.83
2024-01-07T18:31:43.463Z,-0.65
2024-01-07T18:34:11.568Z,-0.74
2024-01-07T18:36:41.576Z,-0.67
2024-01-07T18:39:09.383Z,-0.84
2024-01-07T18:41:38.193Z,-0.84
2024-01-07T18:44:07.136Z,-0.92
2024-01-07T18:46:35.196Z,-0.93
2024-01-07T18:49:02.940Z,-0.97
2024-01-07T18:51:32.262Z,-1.14
2024-01-07T18:54:01.387Z,-0.98
2024-01-07T18:56:30.072Z,-0.91
2024-01-07T18:58:57.969Z,-1.06
2024-01-07T19:01:26.000Z,-1.02
2024-01-07T19:03:55.046Z,-1.04
2024-01-07T19:06:23.585Z,-0.93
2024-01-07T19:08:51.937Z,-0.91
2024-01-07T19:11:21.536Z,-1.00
2024-01-07T19:13:49.408Z,-0.99
2024-01-07T19:16:17.970Z,-1.05
2024-01-07T19:18:45.786Z,-1.08
2024-01-07T19:21:17.141Z,-1.20
2024-01-07T19:23:44.962Z,-1.15
2024-01-07T19:26:13.129Z,-1.12
2024-01-07T19:28:43.535Z,-1.07
2024-01-07T19:31:11.652Z,-1.05
2024-01-07T19:33:44.094Z,-1.25
2024-01-07T19:36:12.874Z,-1.13
2024-01-07T19:38:40.622Z,-1.09
2024-01-07T19:41:08.341Z,-1.19
2024-01-07T19:43:37.268Z,-1.14
2024-01-07T19:46:06.364Z,-1.18
2024-01-07T19:48:34.157Z,-1.17
2024-01-07T19:51:01.858Z,-1.18
2024-01-07T19:53:31.364Z,-1.23
2024-01-07T19:56:02.984Z,-1.17
2024-01-07T19:58:31.240Z,-1.23
2024-01-07T20:00:59.323Z,-1.10
2024-01-07T20:03:28.411Z,-1.09
2024-01-07T20:05:56.592Z,-1.10
2024-01-07T20:08:24.475Z,-1.06
2024-01-07T20:10:54.135Z,-1.02
2024-01-07T20:13:23.568Z,-1.02
2024-01-07T20:15:51.676Z,-1.02
2024-01-07T20:18:19.615Z,-1.08
2024-01-07T20:20:49.181Z,-1.06
2024-01-07T20:23:17.187Z,-1.04
2024-01-07T20:25:47.694Z,-1.02
2024-01-07T20:28:15.485Z,-0.95
2024-01-07T20:30:43.648Z,-1.04
2024-01-07T20:33:13.617Z,-0.98
2024-01-07T20:35:41.515Z,-0.93
2024-01-07T20:38:11.779Z,-0.92
2024-01-07T20:40:39.722Z,-0.98
2024-01-07T20:43:11.547Z,-0.90
2024-01-07T20:45:39.705Z,-0.86
2024-01-07T20:48:08.162Z,-0.95
2024-01-07T20:50:38.270Z,-0.94
2024-01-07T20:53:06.247Z,-1.05
2024-01-07T20:55:35.310Z,-0.99
2024-01-07T20:58:03.939Z,-0.94
2024-01-07T21:00:31.775Z,-1.05
2024-01-07T21:02:59.457Z,-0.97
2024-01-07T21:05:27.630Z,-0.98
2024-01-07T21:07:55.473Z,-1.07
2024-01-07T21:10:23.148Z,-1.06
2024-01-07T21:12:52.132Z,-1.62
2024-01-07T21:15:19.792Z,-1.08
2024-01-07T21:17:48.045Z,-1.07
2024-01-07T21:20:16.826Z,-1.07
2024-01-07T21:22:44.616Z,-1.16
2024-01-07T21:25:14.622Z,-1.15
2024-01-07T21:27:43.301Z,-1.10
2024-01-07T21:30:13.553Z,-1.09
2024-01-07T21:32:41.740Z,-1.10
2024-01-07T21:35:09.996Z,-1.11
2024-01-07T21:37:37.908Z,-1.11
2024-01-07T21:40:07.346Z,-1.08
2024-01-07T21:42:35.370Z,-1.00
2024-01-07T21:45:04.641Z,-1.09
2024-01-07T21:47:33.814Z,-1.09
2024-01-07T21:50:02.106Z,-1.08
2024-01-07T21:52:32.464Z,-1.10
2024-01-07T21:55:00.868Z,-1.02
2024-01-07T21:57:29.496Z,-1.10
2024-01-07T21:59:57.258Z,-1.10
2024-01-07T22:02:25.267Z,-1.13
2024-01-07T22:04:54.432Z,-0.95
2024-01-07T22:07:22.373Z,-0.83
2024-01-07T22:09:50.137Z,-0.93
2024-01-07T22:12:17.807Z,-0.87
2024-01-07T22:14:44.919Z,-0.98
2024-01-07T22:17:12.679Z,-1.04
2024-01-07T22:19:40.447Z,-1.03
2024-01-07T22:22:09.647Z,-0.95
2024-01-07T22:24:37.437Z,-0.96
2024-01-07T22:27:05.892Z,-0.82
2024-01-07T22:29:33.803Z,-0.88
2024-01-07T22:32:01.490Z,-0.85
2024-01-07T22:34:29.363Z,-0.90
2024-01-07T22:36:57.052Z,-0.86
2024-01-07T22:39:26.727Z,-0.80
2024-01-07T22:41:54.525Z,-0.79
2024-01-07T22:44:22.540Z,-0.84
2024-01-07T22:46:50.826Z,-1.27
2024-01-07T22:49:18.976Z,-0.76
2024-01-07T22:51:48.203Z,-0.80
2024-01-07T22:54:15.976Z,-0.81
2024-01-07T22:56:46.765Z,-0.84
2024-01-07T22:59:16.146Z,-0.78
2024-01-07T23:01:44.138Z,-0.88
2024-01-07T23:04:12.620Z,-0.86
2024-01-07T23:06:41.260Z,-0.72
2024-01-07T23:09:11.053Z,-0.69
2024-01-07T23:11:38.901Z,-0.73
2024-01-07T23:14:08.598Z,-0.81
2024-01-07T23:16:36.360Z,-0.81
2024-01-07T23:19:05.910Z,-0.84
2024-01-07T23:21:33.922Z,-0.72
2024-01-07T23:24:02.577Z,-0.67
2024-01-07T23:26:30.651Z,-0.60
2024-01-07T23:28:58.694Z,-0.76
2024-01-07T23:31:28.048Z,-0.74
2024-01-07T23:33:56.667Z,-0.77
2024-01-07T23:36:24.689Z,-0.74
2024-01-07T23:38:52.590Z,-0.78
2024-01-07T23:41:20.676Z,-0.76
2024-01-07T23:43:49.010Z,-0.81
2024-01-07T23:46:18.401Z,-0.65
2024-01-07T23:48:47.609Z,-0.61
2024-01-07T23:51:15.798Z,-0.61
2024-01-07T23:53:43.501Z,-0.69
2024-01-07T23:56:11.593Z,-0.66
2024-01-07T23:58:39.336Z,-0.66
